KHZX

Isedor Iverson Airport

Mc Gregor, Minnesota, USA
METAR KHZX 210515Z AUTO 07004KT 10SM OVC008 17/16 A3007 RMK AO2
Observed Flight Rules
Aug-21 @ 05:15 UTC (9 hours ago) Instrument Flight Rules
Wind Visibility Clouds
70° at 4 knots 10 miles
  • Overcast at 800' AGL
Temperatures Readings
Current 17°C / 63°F
Dewpoint 16°C / 61°F
Humidity 94%
Altimeter 30.07" Hg
Pressure 1018 hPa
Elevation 374
METAR KHZX 210515Z AUTO 07004KT 10SM OVC008 17/16 A3007 RMK AO2
Observed Flight Rules
Aug-21 @ 05:15 UTC
(9 hours ago)
IFR
Wind Visibility
70° at 4 knots 10 miles
Clouds
  • Overcast at 800' AGL
Temperature Dewpoint
17°C / 63°F 16°C / 61°F
Humidity Altimeter Pressure
94% 30.07" Hg 1018 hPa